sensor_id;sensor_type;location;lat;lon;timestamp;pressure;altitude;pressure_sealevel;temperature;humidity
51687;BME280;37774;52.192;4.584;2023-02-28T00:00:01;103365.38;;;0.57;100.00
51687;BME280;37774;52.192;4.584;2023-02-28T00:02:33;103303.22;;;0.12;100.00
51687;BME280;37774;52.192;4.584;2023-02-28T00:05:00;103355.72;;;0.65;100.00
51687;BME280;37774;52.192;4.584;2023-02-28T00:07:28;102915.59;;;-2.20;100.00
51687;BME280;37774;52.192;4.584;2023-02-28T00:09:55;103156.59;;;-0.47;100.00
51687;BME280;37774;52.192;4.584;2023-02-28T00:12:24;103378.53;;;0.62;100.00
51687;BME280;37774;52.192;4.584;2023-02-28T00:14:51;102900.06;;;-2.23;100.00
51687;BME280;37774;52.192;4.584;2023-02-28T00:17:18;103386.75;;;0.69;100.00
51687;BME280;37774;52.192;4.584;2023-02-28T00:19:47;103361.19;;;0.81;100.00
51687;BME280;37774;52.192;4.584;2023-02-28T00:22:14;103356.38;;;0.86;100.00
51687;BME280;37774;52.192;4.584;2023-02-28T00:24:41;103295.06;;;0.52;100.00
51687;BME280;37774;52.192;4.584;2023-02-28T00:27:08;103378.22;;;0.93;100.00
51687;BME280;37774;52.192;4.584;2023-02-28T00:29:36;103364.09;;;0.98;100.00
51687;BME280;37774;52.192;4.584;2023-02-28T00:32:04;103295.47;;;0.46;100.00
51687;BME280;37774;52.192;4.584;2023-02-28T00:34:32;102984.75;;;-1.26;100.00
51687;BME280;37774;52.192;4.584;2023-02-28T00:37:03;103095.19;;;-0.48;100.00
51687;BME280;37774;52.192;4.584;2023-02-28T00:39:31;103320.56;;;0.98;100.00
51687;BME280;37774;52.192;4.584;2023-02-28T00:42:00;103268.13;;;0.57;100.00
51687;BME280;37774;52.192;4.584;2023-02-28T00:44:27;103360.97;;;1.14;100.00
51687;BME280;37774;52.192;4.584;2023-02-28T00:46:56;102984.69;;;-1.38;100.00
51687;BME280;37774;52.192;4.584;2023-02-28T00:49:23;103324.91;;;0.99;100.00
51687;BME280;37774;52.192;4.584;2023-02-28T00:51:51;103180.25;;;0.09;100.00
51687;BME280;37774;52.192;4.584;2023-02-28T00:54:19;103354.47;;;1.31;100.00
51687;BME280;37774;52.192;4.584;2023-02-28T00:56:46;103327.75;;;1.27;100.00
51687;BME280;37774;52.192;4.584;2023-02-28T00:59:13;103323.84;;;1.33;100.00
51687;BME280;37774;52.192;4.584;2023-02-28T01:01:40;103325.63;;;1.34;100.00
51687;BME280;37774;52.192;4.584;2023-02-28T01:04:08;103335.97;;;1.35;100.00
51687;BME280;37774;52.192;4.584;2023-02-28T01:06:35;103067.06;;;-0.12;100.00
51687;BME280;37774;52.192;4.584;2023-02-28T01:09:03;103325.50;;;1.44;100.00
51687;BME280;37774;52.192;4.584;2023-02-28T01:11:31;103293.69;;;1.28;100.00
51687;BME280;37774;52.192;4.584;2023-02-28T01:13:58;103321.00;;;1.53;100.00
51687;BME280;37774;52.192;4.584;2023-02-28T01:16:26;102937.78;;;-0.70;100.00
51687;BME280;37774;52.192;4.584;2023-02-28T01:18:54;103003.75;;;-0.64;100.00
51687;BME280;37774;52.192;4.584;2023-02-28T01:21:23;103125.31;;;0.27;100.00
51687;BME280;37774;52.192;4.584;2023-02-28T01:23:51;103309.44;;;1.46;100.00
51687;BME280;37774;52.192;4.584;2023-02-28T01:26:20;103328.13;;;1.57;100.00
51687;BME280;37774;52.192;4.584;2023-02-28T01:28:49;103231.44;;;1.06;100.00
51687;BME280;37774;52.192;4.584;2023-02-28T01:31:17;103320.78;;;1.62;100.00
51687;BME280;37774;52.192;4.584;2023-02-28T01:33:44;103239.59;;;1.12;100.00
51687;BME280;37774;52.192;4.584;2023-02-28T01:36:13;103323.56;;;1.65;100.00
51687;BME280;37774;52.192;4.584;2023-02-28T01:38:42;103252.72;;;1.16;100.00
51687;BME280;37774;52.192;4.584;2023-02-28T01:41:16;103307.38;;;1.66;100.00
51687;BME280;37774;52.192;4.584;2023-02-28T01:43:55;103227.06;;;1.28;100.00
51687;BME280;37774;52.192;4.584;2023-02-28T01:46:22;103308.69;;;1.73;100.00
51687;BME280;37774;52.192;4.584;2023-02-28T01:48:51;103305.31;;;1.74;100.00
51687;BME280;37774;52.192;4.584;2023-02-28T01:51:22;103264.41;;;1.50;100.00
51687;BME280;37774;52.192;4.584;2023-02-28T01:53:54;102955.78;;;-0.33;100.00
51687;BME280;37774;52.192;4.584;2023-02-28T01:56:25;102862.72;;;-0.72;100.00
51687;BME280;37774;52.192;4.584;2023-02-28T01:58:54;103293.91;;;1.82;100.00
51687;BME280;37774;52.192;4.584;2023-02-28T02:01:22;103167.88;;;1.12;100.00
51687;BME280;37774;52.192;4.584;2023-02-28T02:03:51;103207.78;;;1.34;100.00
51687;BME280;37774;52.192;4.584;2023-02-28T02:06:21;103301.31;;;1.78;100.00
51687;BME280;37774;52.192;4.584;2023-02-28T02:08:48;103305.09;;;1.83;100.00
51687;BME280;37774;52.192;4.584;2023-02-28T02:11:19;103224.38;;;1.27;100.00
51687;BME280;37774;52.192;4.584;2023-02-28T02:14:03;103311.56;;;1.78;100.00
51687;BME280;37774;52.192;4.584;2023-02-28T02:16:40;103041.03;;;0.17;100.00
51687;BME280;37774;52.192;4.584;2023-02-28T02:19:31;103301.94;;;1.87;100.00
51687;BME280;37774;52.192;4.584;2023-02-28T02:22:12;103343.63;;;1.84;100.00
51687;BME280;37774;52.192;4.584;2023-02-28T02:25:01;103319.09;;;1.88;100.00
51687;BME280;37774;52.192;4.584;2023-02-28T02:27:51;103069.88;;;0.64;100.00
51687;BME280;37774;52.192;4.584;2023-02-28T02:30:58;103286.00;;;2.04;100.00
51687;BME280;37774;52.192;4.584;2023-02-28T02:36:51;103299.41;;;2.00;100.00
51687;BME280;37774;52.192;4.584;2023-02-28T02:39:29;103286.19;;;1.94;100.00
51687;BME280;37774;52.192;4.584;2023-02-28T02:42:01;103280.72;;;1.89;100.00
51687;BME280;37774;52.192;4.584;2023-02-28T02:44:31;102931.94;;;-0.08;100.00
51687;BME280;37774;52.192;4.584;2023-02-28T02:47:06;103278.97;;;2.02;100.00
51687;BME280;37774;52.192;4.584;2023-02-28T02:49:36;103242.63;;;1.82;100.00
51687;BME280;37774;52.192;4.584;2023-02-28T02:52:09;103274.38;;;2.10;100.00
51687;BME280;37774;52.192;4.584;2023-02-28T02:54:41;103283.75;;;2.09;100.00
51687;BME280;37774;52.192;4.584;2023-02-28T02:57:13;103232.72;;;1.87;100.00
51687;BME280;37774;52.192;4.584;2023-02-28T02:59:43;102737.69;;;-0.96;100.00
51687;BME280;37774;52.192;4.584;2023-02-28T03:02:12;103052.84;;;0.90;100.00
51687;BME280;37774;52.192;4.584;2023-02-28T03:04:44;102820.66;;;-0.65;100.00
51687;BME280;37774;52.192;4.584;2023-02-28T03:07:14;103269.84;;;2.19;100.00
51687;BME280;37774;52.192;4.584;2023-02-28T03:09:40;103279.53;;;2.23;100.00
51687;BME280;37774;52.192;4.584;2023-02-28T03:12:10;103277.09;;;2.25;100.00
51687;BME280;37774;52.192;4.584;2023-02-28T03:14:46;103276.97;;;2.23;100.00
51687;BME280;37774;52.192;4.584;2023-02-28T03:17:27;103262.94;;;2.18;100.00
51687;BME280;37774;52.192;4.584;2023-02-28T03:20:05;103234.91;;;2.08;100.00
51687;BME280;37774;52.192;4.584;2023-02-28T03:22:45;103272.03;;;2.26;100.00
51687;BME280;37774;52.192;4.584;2023-02-28T03:25:20;103265.25;;;2.27;100.00
51687;BME280;37774;52.192;4.584;2023-02-28T03:27:57;102782.00;;;-0.70;100.00
51687;BME280;37774;52.192;4.584;2023-02-28T03:30:31;103315.00;;;2.29;100.00
51687;BME280;37774;52.192;4.584;2023-02-28T03:33:05;103024.84;;;0.79;100.00
51687;BME280;37774;52.192;4.584;2023-02-28T03:35:36;103280.25;;;2.34;100.00
51687;BME280;37774;52.192;4.584;2023-02-28T03:38:09;102888.06;;;-0.14;100.00
51687;BME280;37774;52.192;4.584;2023-02-28T03:40:41;103220.22;;;1.66;100.00
51687;BME280;37774;52.192;4.584;2023-02-28T03:43:12;102837.97;;;-0.49;100.00
51687;BME280;37774;52.192;4.584;2023-02-28T03:45:43;103322.00;;;2.31;100.00
51687;BME280;37774;52.192;4.584;2023-02-28T03:48:15;103256.50;;;2.11;100.00
51687;BME280;37774;52.192;4.584;2023-02-28T03:50:45;103284.00;;;2.26;100.00
51687;BME280;37774;52.192;4.584;2023-02-28T03:53:20;103314.00;;;2.27;100.00
51687;BME280;37774;52.192;4.584;2023-02-28T03:55:49;103300.38;;;2.28;100.00
51687;BME280;37774;52.192;4.584;2023-02-28T03:58:22;103098.59;;;1.10;100.00
51687;BME280;37774;52.192;4.584;2023-02-28T04:00:56;103198.03;;;1.41;100.00
51687;BME280;37774;52.192;4.584;2023-02-28T04:03:25;103326.41;;;2.21;100.00
51687;BME280;37774;52.192;4.584;2023-02-28T04:05:53;103156.25;;;1.42;100.00
51687;BME280;37774;52.192;4.584;2023-02-28T04:08:22;103255.41;;;1.69;100.00
51687;BME280;37774;52.192;4.584;2023-02-28T04:10:53;102971.28;;;0.06;100.00
51687;BME280;37774;52.192;4.584;2023-02-28T04:13:21;103231.34;;;1.67;100.00
51687;BME280;37774;52.192;4.584;2023-02-28T04:15:48;103023.03;;;0.65;100.00
51687;BME280;37774;52.192;4.584;2023-02-28T04:18:15;103303.22;;;2.19;100.00
51687;BME280;37774;52.192;4.584;2023-02-28T04:20:42;102842.19;;;-0.62;100.00
51687;BME280;37774;52.192;4.584;2023-02-28T04:23:09;103146.00;;;1.42;100.00
51687;BME280;37774;52.192;4.584;2023-02-28T04:25:37;103183.56;;;1.67;100.00
51687;BME280;37774;52.192;4.584;2023-02-28T04:28:06;103061.50;;;0.92;100.00
51687;BME280;37774;52.192;4.584;2023-02-28T04:30:33;102968.78;;;0.45;100.00
51687;BME280;37774;52.192;4.584;2023-02-28T04:33:00;103023.72;;;0.76;100.00
51687;BME280;37774;52.192;4.584;2023-02-28T04:35:27;103246.69;;;1.79;100.00
51687;BME280;37774;52.192;4.584;2023-02-28T04:37:53;103262.94;;;2.04;100.00
51687;BME280;37774;52.192;4.584;2023-02-28T04:40:20;103296.31;;;2.31;100.00
51687;BME280;37774;52.192;4.584;2023-02-28T04:42:49;102883.97;;;-0.24;100.00
51687;BME280;37774;52.192;4.584;2023-02-28T04:45:15;103295.44;;;2.31;100.00
51687;BME280;37774;52.192;4.584;2023-02-28T04:47:42;103020.09;;;0.72;100.00
51687;BME280;37774;52.192;4.584;2023-02-28T04:50:10;103292.31;;;2.35;100.00
51687;BME280;37774;52.192;4.584;2023-02-28T04:52:36;103252.84;;;1.94;100.00
51687;BME280;37774;52.192;4.584;2023-02-28T04:55:04;103288.22;;;2.25;100.00
51687;BME280;37774;52.192;4.584;2023-02-28T04:57:31;103292.09;;;2.32;100.00
51687;BME280;37774;52.192;4.584;2023-02-28T04:59:59;103293.88;;;2.33;100.00
51687;BME280;37774;52.192;4.584;2023-02-28T05:02:26;103292.97;;;2.32;100.00
51687;BME280;37774;52.192;4.584;2023-02-28T05:04:53;103200.78;;;1.70;100.00
51687;BME280;37774;52.192;4.584;2023-02-28T05:07:19;103238.06;;;2.03;100.00
51687;BME280;37774;52.192;4.584;2023-02-28T05:09:46;103301.66;;;2.34;100.00
51687;BME280;37774;52.192;4.584;2023-02-28T05:12:13;103258.59;;;2.17;100.00
51687;BME280;37774;52.192;4.584;2023-02-28T05:14:40;103296.31;;;2.31;100.00
51687;BME280;37774;52.192;4.584;2023-02-28T05:17:09;103304.03;;;2.31;100.00
51687;BME280;37774;52.192;4.584;2023-02-28T05:19:36;103170.22;;;1.34;100.00
51687;BME280;37774;52.192;4.584;2023-02-28T05:22:03;103235.94;;;1.84;100.00
51687;BME280;37774;52.192;4.584;2023-02-28T05:24:30;102860.47;;;-0.55;100.00
51687;BME280;37774;52.192;4.584;2023-02-28T05:26:56;103139.34;;;1.19;100.00
51687;BME280;37774;52.192;4.584;2023-02-28T05:29:23;103272.88;;;2.00;100.00
51687;BME280;37774;52.192;4.584;2023-02-28T05:31:50;103316.78;;;2.30;100.00
51687;BME280;37774;52.192;4.584;2023-02-28T05:34:19;103014.72;;;0.55;100.00
51687;BME280;37774;52.192;4.584;2023-02-28T05:36:45;103284.19;;;2.15;100.00
51687;BME280;37774;52.192;4.584;2023-02-28T05:39:12;103285.63;;;2.12;100.00
51687;BME280;37774;52.192;4.584;2023-02-28T05:41:42;102804.22;;;-0.69;100.00
51687;BME280;37774;52.192;4.584;2023-02-28T05:44:10;103335.81;;;2.33;100.00
51687;BME280;37774;52.192;4.584;2023-02-28T05:46:37;103337.19;;;2.28;100.00
51687;BME280;37774;52.192;4.584;2023-02-28T05:49:04;103100.78;;;0.67;100.00
51687;BME280;37774;52.192;4.584;2023-02-28T05:51:33;103188.47;;;1.39;100.00
51687;BME280;37774;52.192;4.584;2023-02-28T05:54:02;103344.69;;;2.39;100.00
51687;BME280;37774;52.192;4.584;2023-02-28T05:56:29;103370.88;;;2.33;100.00
51687;BME280;37774;52.192;4.584;2023-02-28T05:58:56;103086.38;;;0.81;100.00
51687;BME280;37774;52.192;4.584;2023-02-28T06:01:30;103363.75;;;2.29;100.00
51687;BME280;37774;52.192;4.584;2023-02-28T06:03:58;103215.97;;;1.41;100.00
51687;BME280;37774;52.192;4.584;2023-02-28T06:06:26;103333.56;;;1.99;100.00
51687;BME280;37774;52.192;4.584;2023-02-28T06:08:54;103302.56;;;1.96;100.00
51687;BME280;37774;52.192;4.584;2023-02-28T06:11:21;103364.41;;;2.26;100.00
51687;BME280;37774;52.192;4.584;2023-02-28T06:13:53;102884.28;;;-0.68;100.00
51687;BME280;37774;52.192;4.584;2023-02-28T06:16:21;103395.78;;;2.22;100.00
51687;BME280;37774;52.192;4.584;2023-02-28T06:18:48;103367.59;;;2.10;100.00
51687;BME280;37774;52.192;4.584;2023-02-28T06:21:16;103364.00;;;2.20;100.00
51687;BME280;37774;52.192;4.584;2023-02-28T06:23:43;102901.34;;;-0.55;100.00
51687;BME280;37774;52.192;4.584;2023-02-28T06:26:11;102936.25;;;-0.44;100.00
51687;BME280;37774;52.192;4.584;2023-02-28T06:28:38;103329.63;;;2.04;100.00
51687;BME280;37774;52.192;4.584;2023-02-28T06:31:06;103263.94;;;1.56;100.00
51687;BME280;37774;52.192;4.584;2023-02-28T06:33:34;103028.38;;;0.19;100.00
51687;BME280;37774;52.192;4.584;2023-02-28T06:36:01;103250.34;;;1.31;100.00
51687;BME280;37774;52.192;4.584;2023-02-28T06:38:28;103194.19;;;0.97;100.00
51687;BME280;37774;52.192;4.584;2023-02-28T06:40:57;103357.13;;;2.07;100.00
51687;BME280;37774;52.192;4.584;2023-02-28T06:43:28;102853.09;;;-1.00;100.00
51687;BME280;37774;52.192;4.584;2023-02-28T06:45:55;103356.00;;;1.90;100.00
51687;BME280;37774;52.192;4.584;2023-02-28T06:48:22;103345.16;;;1.57;100.00
51687;BME280;37774;52.192;4.584;2023-02-28T06:50:50;103362.53;;;1.73;100.00
51687;BME280;37774;52.192;4.584;2023-02-28T06:53:16;103154.56;;;0.31;100.00
51687;BME280;37774;52.192;4.584;2023-02-28T06:55:43;103270.75;;;1.18;100.00
51687;BME280;37774;52.192;4.584;2023-02-28T06:58:10;103372.03;;;1.62;100.00
51687;BME280;37774;52.192;4.584;2023-02-28T07:00:42;102975.09;;;-0.84;100.00
51687;BME280;37774;52.192;4.584;2023-02-28T07:03:09;103374.81;;;1.65;100.00
51687;BME280;37774;52.192;4.584;2023-02-28T07:05:37;103369.00;;;1.56;100.00
51687;BME280;37774;52.192;4.584;2023-02-28T07:08:05;103362.94;;;1.42;100.00
51687;BME280;37774;52.192;4.584;2023-02-28T07:10:32;103282.41;;;0.53;100.00
51687;BME280;37774;52.192;4.584;2023-02-28T07:12:59;103375.97;;;0.97;100.00
51687;BME280;37774;52.192;4.584;2023-02-28T07:15:26;103333.44;;;0.52;100.00
51687;BME280;37774;52.192;4.584;2023-02-28T07:17:55;103376.53;;;0.93;100.00
51687;BME280;37774;52.192;4.584;2023-02-28T07:20:22;103194.88;;;-0.24;100.00
51687;BME280;37774;52.192;4.584;2023-02-28T07:22:49;103011.69;;;-1.29;100.00
51687;BME280;37774;52.192;4.584;2023-02-28T07:25:22;103145.78;;;-0.54;100.00
51687;BME280;37774;52.192;4.584;2023-02-28T07:27:48;103311.47;;;0.20;100.00
51687;BME280;37774;52.192;4.584;2023-02-28T07:30:16;103238.41;;;-0.35;100.00
51687;BME280;37774;52.192;4.584;2023-02-28T07:32:43;103294.38;;;-0.04;100.00
51687;BME280;37774;52.192;4.584;2023-02-28T07:35:11;103344.72;;;0.20;100.00
51687;BME280;37774;52.192;4.584;2023-02-28T07:37:38;103112.25;;;-1.38;100.00
51687;BME280;37774;52.192;4.584;2023-02-28T07:40:07;103392.25;;;0.40;100.00
51687;BME280;37774;52.192;4.584;2023-02-28T07:42:36;103218.50;;;-0.83;100.00
51687;BME280;37774;52.192;4.584;2023-02-28T07:45:04;103404.44;;;0.54;100.00
51687;BME280;37774;52.192;4.584;2023-02-28T07:47:31;103375.97;;;0.27;100.00
51687;BME280;37774;52.192;4.584;2023-02-28T07:49:59;103409.28;;;0.51;100.00
51687;BME280;37774;52.192;4.584;2023-02-28T07:52:27;103303.16;;;-0.12;100.00
51687;BME280;37774;52.192;4.584;2023-02-28T07:54:54;103346.44;;;0.09;100.00
51687;BME280;37774;52.192;4.584;2023-02-28T07:57:20;103401.88;;;0.54;100.00
51687;BME280;37774;52.192;4.584;2023-02-28T07:59:47;103359.13;;;0.07;100.00
51687;BME280;37774;52.192;4.584;2023-02-28T08:02:15;103056.97;;;-1.82;100.00
51687;BME280;37774;52.192;4.584;2023-02-28T08:04:42;103448.00;;;0.44;100.00
51687;BME280;37774;52.192;4.584;2023-02-28T08:07:09;103373.97;;;0.23;100.00
51687;BME280;37774;52.192;4.584;2023-02-28T08:09:40;103407.50;;;0.38;100.00
51687;BME280;37774;52.192;4.584;2023-02-28T08:12:07;103415.28;;;0.40;100.00
51687;BME280;37774;52.192;4.584;2023-02-28T08:14:34;103113.41;;;-1.34;100.00
51687;BME280;37774;52.192;4.584;2023-02-28T08:17:01;103416.50;;;0.45;100.00
51687;BME280;37774;52.192;4.584;2023-02-28T08:19:29;103422.94;;;0.40;100.00
51687;BME280;37774;52.192;4.584;2023-02-28T08:21:56;103374.28;;;0.16;100.00
51687;BME280;37774;52.192;4.584;2023-02-28T08:24:23;103411.06;;;0.40;100.00
51687;BME280;37774;52.192;4.584;2023-02-28T08:26:51;103408.75;;;0.43;100.00
51687;BME280;37774;52.192;4.584;2023-02-28T08:29:18;103252.97;;;-0.56;100.00
51687;BME280;37774;52.192;4.584;2023-02-28T08:31:45;103421.28;;;0.40;100.00
51687;BME280;37774;52.192;4.584;2023-02-28T08:34:14;102999.19;;;-1.93;100.00
51687;BME280;37774;52.192;4.584;2023-02-28T08:36:41;103178.66;;;-0.81;100.00
51687;BME280;37774;52.192;4.584;2023-02-28T08:39:10;103294.88;;;-0.20;100.00
51687;BME280;37774;52.192;4.584;2023-02-28T08:41:37;103421.88;;;0.48;100.00
51687;BME280;37774;52.192;4.584;2023-02-28T08:44:05;103415.97;;;0.49;100.00
51687;BME280;37774;52.192;4.584;2023-02-28T08:46:32;103374.81;;;0.12;100.00
51687;BME280;37774;52.192;4.584;2023-02-28T08:48:59;103412.16;;;0.44;100.00
51687;BME280;37774;52.192;4.584;2023-02-28T08:51:28;103409.84;;;0.47;100.00
51687;BME280;37774;52.192;4.584;2023-02-28T08:53:56;102831.03;;;-2.70;100.00
51687;BME280;37774;52.192;4.584;2023-02-28T08:56:25;103201.50;;;-0.61;100.00
51687;BME280;37774;52.192;4.584;2023-02-28T08:58:54;103389.44;;;0.71;100.00
51687;BME280;37774;52.192;4.584;2023-02-28T09:01:25;103327.50;;;0.41;100.00
51687;BME280;37774;52.192;4.584;2023-02-28T09:03:54;103396.03;;;0.91;100.00
51687;BME280;37774;52.192;4.584;2023-02-28T09:06:23;103366.41;;;0.71;100.00
51687;BME280;37774;52.192;4.584;2023-02-28T09:08:51;103377.09;;;0.77;100.00
51687;BME280;37774;52.192;4.584;2023-02-28T09:11:18;103152.44;;;-0.56;100.00
51687;BME280;37774;52.192;4.584;2023-02-28T09:13:45;103401.25;;;1.05;100.00
51687;BME280;37774;52.192;4.584;2023-02-28T09:16:14;103371.84;;;0.64;100.00
51687;BME280;37774;52.192;4.584;2023-02-28T09:18:44;103190.31;;;-0.28;100.00
51687;BME280;37774;52.192;4.584;2023-02-28T09:21:14;103033.94;;;-1.39;100.00
51687;BME280;37774;52.192;4.584;2023-02-28T09:23:42;103329.47;;;0.55;100.00
51687;BME280;37774;52.192;4.584;2023-02-28T09:26:13;103040.97;;;-1.02;100.00
51687;BME280;37774;52.192;4.584;2023-02-28T09:28:40;103402.06;;;1.27;100.00
51687;BME280;37774;52.192;4.584;2023-02-28T09:31:12;103423.56;;;1.29;100.00
51687;BME280;37774;52.192;4.584;2023-02-28T09:33:39;103388.56;;;1.30;100.00
51687;BME280;37774;52.192;4.584;2023-02-28T09:36:08;103099.03;;;-0.53;100.00
51687;BME280;37774;52.192;4.584;2023-02-28T09:38:35;103101.06;;;-0.49;100.00
51687;BME280;37774;52.192;4.584;2023-02-28T09:41:08;103378.31;;;1.30;100.00
51687;BME280;37774;52.192;4.584;2023-02-28T09:43:41;103420.84;;;1.52;100.00
51687;BME280;37774;52.192;4.584;2023-02-28T09:46:18;103439.34;;;1.59;100.00
51687;BME280;37774;52.192;4.584;2023-02-28T09:48:48;103465.72;;;1.82;100.00
51687;BME280;37774;52.192;4.584;2023-02-28T09:51:28;103079.19;;;-0.34;100.00
51687;BME280;37774;52.192;4.584;2023-02-28T09:53:56;103328.72;;;1.41;100.00
51687;BME280;37774;52.192;4.584;2023-02-28T09:56:26;103393.13;;;1.95;100.00
51687;BME280;37774;52.192;4.584;2023-02-28T09:58:58;103419.88;;;2.24;100.00
51687;BME280;37774;52.192;4.584;2023-02-28T10:01:31;103342.44;;;2.04;100.00
51687;BME280;37774;52.192;4.584;2023-02-28T10:04:05;103408.53;;;2.59;100.00
51687;BME280;37774;52.192;4.584;2023-02-28T10:06:41;103403.53;;;2.88;100.00
51687;BME280;37774;52.192;4.584;2023-02-28T10:09:11;103398.22;;;2.85;100.00
51687;BME280;37774;52.192;4.584;2023-02-28T10:11:42;103306.13;;;2.37;100.00
51687;BME280;37774;52.192;4.584;2023-02-28T10:14:13;103402.75;;;3.02;100.00
51687;BME280;37774;52.192;4.584;2023-02-28T10:16:44;103220.63;;;1.72;100.00
51687;BME280;37774;52.192;4.584;2023-02-28T10:19:20;103415.44;;;3.26;100.00
51687;BME280;37774;52.192;4.584;2023-02-28T10:21:55;103141.34;;;1.62;100.00
51687;BME280;37774;52.192;4.584;2023-02-28T10:24:28;103139.88;;;1.40;100.00
51687;BME280;37774;52.192;4.584;2023-02-28T10:27:00;103181.50;;;1.50;100.00
51687;BME280;37774;52.192;4.584;2023-02-28T10:29:27;103404.44;;;3.29;100.00
51687;BME280;37774;52.192;4.584;2023-02-28T10:31:55;103427.16;;;3.49;100.00
51687;BME280;37774;52.192;4.584;2023-02-28T10:34:22;103318.56;;;2.98;100.00
51687;BME280;37774;52.192;4.584;2023-02-28T10:36:52;103442.72;;;3.38;100.00
51687;BME280;37774;52.192;4.584;2023-02-28T10:39:37;103239.22;;;1.95;100.00
51687;BME280;37774;52.192;4.584;2023-02-28T10:42:05;103434.03;;;3.35;100.00
51687;BME280;37774;52.192;4.584;2023-02-28T10:44:44;103444.78;;;3.03;100.00
51687;BME280;37774;52.192;4.584;2023-02-28T10:47:14;103421.84;;;2.92;100.00
51687;BME280;37774;52.192;4.584;2023-02-28T10:49:47;103226.94;;;1.64;100.00
51687;BME280;37774;52.192;4.584;2023-02-28T10:52:33;103184.59;;;1.57;100.00
51687;BME280;37774;52.192;4.584;2023-02-28T10:55:15;103401.75;;;2.87;100.00
51687;BME280;37774;52.192;4.584;2023-02-28T10:57:42;103327.59;;;2.78;100.00
51687;BME280;37774;52.192;4.584;2023-02-28T11:00:15;103434.09;;;3.10;100.00
51687;BME280;37774;52.192;4.584;2023-02-28T11:02:42;103428.19;;;3.25;100.00
51687;BME280;37774;52.192;4.584;2023-02-28T11:05:28;103300.63;;;2.71;100.00
51687;BME280;37774;52.192;4.584;2023-02-28T11:08:06;103444.56;;;3.80;100.00
51687;BME280;37774;52.192;4.584;2023-02-28T11:10:36;103420.03;;;3.72;100.00
51687;BME280;37774;52.192;4.584;2023-02-28T11:13:04;103412.09;;;3.83;100.00
51687;BME280;37774;52.192;4.584;2023-02-28T11:15:33;103391.31;;;4.08;100.00
51687;BME280;37774;52.192;4.584;2023-02-28T11:18:02;103082.16;;;2.26;100.00
51687;BME280;37774;52.192;4.584;2023-02-28T11:20:34;103315.69;;;3.91;100.00
51687;BME280;37774;52.192;4.584;2023-02-28T11:23:04;103370.88;;;4.55;100.00
51687;BME280;37774;52.192;4.584;2023-02-28T11:25:32;103377.25;;;4.31;100.00
51687;BME280;37774;52.192;4.584;2023-02-28T11:28:02;103387.69;;;4.19;100.00
51687;BME280;37774;52.192;4.584;2023-02-28T11:30:34;103388.13;;;4.12;100.00
51687;BME280;37774;52.192;4.584;2023-02-28T11:33:21;103347.69;;;4.39;100.00
51687;BME280;37774;52.192;4.584;2023-02-28T11:35:50;103382.78;;;4.52;100.00
51687;BME280;37774;52.192;4.584;2023-02-28T11:38:19;103362.16;;;4.67;100.00
51687;BME280;37774;52.192;4.584;2023-02-28T11:40:49;103378.69;;;4.56;100.00
51687;BME280;37774;52.192;4.584;2023-02-28T11:43:27;103404.69;;;4.76;100.00
51687;BME280;37774;52.192;4.584;2023-02-28T11:46:10;103198.91;;;3.74;100.00
51687;BME280;37774;52.192;4.584;2023-02-28T11:48:47;103304.53;;;4.05;100.00
51687;BME280;37774;52.192;4.584;2023-02-28T11:51:21;103365.88;;;4.73;100.00
51687;BME280;37774;52.192;4.584;2023-02-28T11:56:52;103277.34;;;3.95;100.00
51687;BME280;37774;52.192;4.584;2023-02-28T11:59:39;103249.50;;;3.88;100.00
51687;BME280;37774;52.192;4.584;2023-02-28T12:02:24;103349.44;;;4.86;100.00
51687;BME280;37774;52.192;4.584;2023-02-28T12:05:12;103313.06;;;4.49;100.00
51687;BME280;37774;52.192;4.584;2023-02-28T12:07:50;103063.63;;;2.87;100.00
51687;BME280;37774;52.192;4.584;2023-02-28T12:10:23;103356.81;;;4.94;100.00
51687;BME280;37774;52.192;4.584;2023-02-28T12:13:04;103318.13;;;4.78;100.00
51687;BME280;37774;52.192;4.584;2023-02-28T12:15:46;103284.19;;;4.55;100.00
51687;BME280;37774;52.192;4.584;2023-02-28T12:18:42;103295.69;;;4.77;100.00
51687;BME280;37774;52.192;4.584;2023-02-28T12:21:20;103349.09;;;4.94;100.00
51687;BME280;37774;52.192;4.584;2023-02-28T12:24:18;103346.00;;;4.85;100.00
51687;BME280;37774;52.192;4.584;2023-02-28T12:26:51;103306.63;;;4.73;100.00
51687;BME280;37774;52.192;4.584;2023-02-28T12:29:23;103339.13;;;4.86;100.00
51687;BME280;37774;52.192;4.584;2023-02-28T12:31:55;103334.97;;;4.73;100.00
51687;BME280;37774;52.192;4.584;2023-02-28T12:34:28;103311.88;;;4.59;100.00
51687;BME280;37774;52.192;4.584;2023-02-28T12:36:58;103328.25;;;4.60;100.00
51687;BME280;37774;52.192;4.584;2023-02-28T12:39:31;103238.31;;;4.03;100.00
51687;BME280;37774;52.192;4.584;2023-02-28T12:42:01;102922.41;;;2.44;100.00
51687;BME280;37774;52.192;4.584;2023-02-28T12:44:35;103059.41;;;3.18;100.00
51687;BME280;37774;52.192;4.584;2023-02-28T12:47:09;103261.47;;;4.48;100.00
51687;BME280;37774;52.192;4.584;2023-02-28T12:49:39;103308.34;;;4.57;100.00
51687;BME280;37774;52.192;4.584;2023-02-28T12:52:08;103335.00;;;4.58;100.00
51687;BME280;37774;52.192;4.584;2023-02-28T12:54:44;103119.91;;;3.56;100.00
51687;BME280;37774;52.192;4.584;2023-02-28T12:57:17;103330.53;;;4.70;100.00
51687;BME280;37774;52.192;4.584;2023-02-28T12:59:50;103334.81;;;4.24;100.00
51687;BME280;37774;52.192;4.584;2023-02-28T13:02:33;103327.19;;;4.41;100.00
51687;BME280;37774;52.192;4.584;2023-02-28T13:05:29;103344.41;;;4.57;100.00
51687;BME280;37774;52.192;4.584;2023-02-28T13:08:12;102953.31;;;2.17;100.00
51687;BME280;37774;52.192;4.584;2023-02-28T13:10:48;103137.44;;;3.48;100.00